sensor_id;sensor_type;location;lat;lon;timestamp;P1;durP1;ratioP1;P2;durP2;ratioP2
62401;SDS011;48440;51.224;22.506;2023-07-29T00:00:00;7.63;;;3.95;;
62401;SDS011;48440;51.224;22.506;2023-07-29T00:02:29;5.68;;;3.90;;
62401;SDS011;48440;51.224;22.506;2023-07-29T00:05:11;6.90;;;4.15;;
62401;SDS011;48440;51.224;22.506;2023-07-29T00:07:44;6.13;;;3.80;;
62401;SDS011;48440;51.224;22.506;2023-07-29T00:10:19;7.20;;;4.03;;
62401;SDS011;48440;51.224;22.506;2023-07-29T00:13:01;6.70;;;3.80;;
62401;SDS011;48440;51.224;22.506;2023-07-29T00:15:33;5.38;;;3.95;;
62401;SDS011;48440;51.224;22.506;2023-07-29T00:17:59;7.47;;;4.15;;
62401;SDS011;48440;51.224;22.506;2023-07-29T00:20:25;7.43;;;4.15;;
62401;SDS011;48440;51.224;22.506;2023-07-29T00:22:51;7.72;;;5.05;;
62401;SDS011;48440;51.224;22.506;2023-07-29T00:25:19;7.57;;;4.20;;
62401;SDS011;48440;51.224;22.506;2023-07-29T00:27:45;8.60;;;4.00;;
62401;SDS011;48440;51.224;22.506;2023-07-29T00:30:14;10.40;;;4.10;;
62401;SDS011;48440;51.224;22.506;2023-07-29T00:32:40;6.68;;;4.22;;
62401;SDS011;48440;51.224;22.506;2023-07-29T00:35:05;7.95;;;4.50;;
62401;SDS011;48440;51.224;22.506;2023-07-29T00:37:34;11.68;;;4.60;;
62401;SDS011;48440;51.224;22.506;2023-07-29T00:40:04;9.20;;;4.65;;
62401;SDS011;48440;51.224;22.506;2023-07-29T00:42:45;7.15;;;4.35;;
62401;SDS011;48440;51.224;22.506;2023-07-29T00:45:10;7.78;;;4.20;;
62401;SDS011;48440;51.224;22.506;2023-07-29T00:47:37;8.50;;;4.20;;
62401;SDS011;48440;51.224;22.506;2023-07-29T00:50:03;6.07;;;4.15;;
62401;SDS011;48440;51.224;22.506;2023-07-29T00:52:30;10.68;;;4.28;;
62401;SDS011;48440;51.224;22.506;2023-07-29T00:54:55;9.90;;;4.35;;
62401;SDS011;48440;51.224;22.506;2023-07-29T00:57:21;7.88;;;4.95;;
62401;SDS011;48440;51.224;22.506;2023-07-29T00:59:50;6.03;;;4.53;;
62401;SDS011;48440;51.224;22.506;2023-07-29T01:02:26;6.18;;;4.40;;
62401;SDS011;48440;51.224;22.506;2023-07-29T01:04:58;7.97;;;4.32;;
62401;SDS011;48440;51.224;22.506;2023-07-29T01:07:33;10.00;;;4.68;;
62401;SDS011;48440;51.224;22.506;2023-07-29T01:15:49;7.65;;;4.30;;
62401;SDS011;48440;51.224;22.506;2023-07-29T01:18:27;9.90;;;4.93;;
62401;SDS011;48440;51.224;22.506;2023-07-29T01:21:00;10.20;;;4.50;;
62401;SDS011;48440;51.224;22.506;2023-07-29T01:23:29;18.25;;;5.00;;
62401;SDS011;48440;51.224;22.506;2023-07-29T01:25:56;8.95;;;4.32;;
62401;SDS011;48440;51.224;22.506;2023-07-29T01:28:21;9.02;;;4.57;;
62401;SDS011;48440;51.224;22.506;2023-07-29T01:30:49;9.68;;;4.57;;
62401;SDS011;48440;51.224;22.506;2023-07-29T01:33:18;8.52;;;4.78;;
62401;SDS011;48440;51.224;22.506;2023-07-29T01:35:54;6.28;;;4.63;;
62401;SDS011;48440;51.224;22.506;2023-07-29T01:38:31;5.45;;;4.28;;
62401;SDS011;48440;51.224;22.506;2023-07-29T01:41:00;10.18;;;4.80;;
62401;SDS011;48440;51.224;22.506;2023-07-29T01:43:28;7.20;;;4.10;;
62401;SDS011;48440;51.224;22.506;2023-07-29T01:45:55;7.07;;;4.95;;
62401;SDS011;48440;51.224;22.506;2023-07-29T01:48:20;13.60;;;5.20;;
62401;SDS011;48440;51.224;22.506;2023-07-29T01:50:46;7.63;;;4.72;;
62401;SDS011;48440;51.224;22.506;2023-07-29T01:53:13;7.50;;;4.43;;
62401;SDS011;48440;51.224;22.506;2023-07-29T01:55:39;9.77;;;4.70;;
62401;SDS011;48440;51.224;22.506;2023-07-29T01:58:05;10.35;;;4.53;;
62401;SDS011;48440;51.224;22.506;2023-07-29T02:00:31;10.20;;;4.75;;
62401;SDS011;48440;51.224;22.506;2023-07-29T02:02:57;10.45;;;4.28;;
62401;SDS011;48440;51.224;22.506;2023-07-29T02:05:22;10.20;;;5.25;;
62401;SDS011;48440;51.224;22.506;2023-07-29T02:07:48;8.18;;;4.60;;
62401;SDS011;48440;51.224;22.506;2023-07-29T02:10:13;11.23;;;4.65;;
62401;SDS011;48440;51.224;22.506;2023-07-29T02:12:39;8.10;;;4.70;;
62401;SDS011;48440;51.224;22.506;2023-07-29T02:15:05;10.65;;;4.60;;
62401;SDS011;48440;51.224;22.506;2023-07-29T02:17:31;12.25;;;4.53;;
62401;SDS011;48440;51.224;22.506;2023-07-29T02:19:57;7.75;;;4.35;;
62401;SDS011;48440;51.224;22.506;2023-07-29T02:22:22;7.18;;;4.90;;
62401;SDS011;48440;51.224;22.506;2023-07-29T02:24:48;10.27;;;4.95;;
62401;SDS011;48440;51.224;22.506;2023-07-29T02:27:14;8.63;;;4.70;;
62401;SDS011;48440;51.224;22.506;2023-07-29T02:29:39;8.98;;;5.03;;
62401;SDS011;48440;51.224;22.506;2023-07-29T02:32:05;6.93;;;4.95;;
62401;SDS011;48440;51.224;22.506;2023-07-29T02:34:31;7.28;;;5.32;;
62401;SDS011;48440;51.224;22.506;2023-07-29T02:36:57;8.73;;;4.50;;
62401;SDS011;48440;51.224;22.506;2023-07-29T02:39:22;8.00;;;5.05;;
62401;SDS011;48440;51.224;22.506;2023-07-29T02:41:49;11.10;;;4.97;;
62401;SDS011;48440;51.224;22.506;2023-07-29T02:44:15;7.68;;;4.82;;
62401;SDS011;48440;51.224;22.506;2023-07-29T02:46:41;7.55;;;5.07;;
62401;SDS011;48440;51.224;22.506;2023-07-29T02:49:06;7.63;;;4.63;;
62401;SDS011;48440;51.224;22.506;2023-07-29T02:51:32;10.15;;;4.70;;
62401;SDS011;48440;51.224;22.506;2023-07-29T02:53:58;9.88;;;5.18;;
62401;SDS011;48440;51.224;22.506;2023-07-29T02:56:24;6.38;;;4.47;;
62401;SDS011;48440;51.224;22.506;2023-07-29T02:58:50;13.60;;;6.05;;
62401;SDS011;48440;51.224;22.506;2023-07-29T03:01:19;7.43;;;5.25;;
62401;SDS011;48440;51.224;22.506;2023-07-29T03:03:45;7.53;;;5.13;;
62401;SDS011;48440;51.224;22.506;2023-07-29T03:06:11;11.77;;;5.75;;
62401;SDS011;48440;51.224;22.506;2023-07-29T03:08:38;8.07;;;5.20;;
62401;SDS011;48440;51.224;22.506;2023-07-29T03:11:08;10.57;;;5.82;;
62401;SDS011;48440;51.224;22.506;2023-07-29T03:13:35;9.57;;;5.28;;
62401;SDS011;48440;51.224;22.506;2023-07-29T03:16:04;8.68;;;5.18;;
62401;SDS011;48440;51.224;22.506;2023-07-29T03:18:30;9.85;;;5.13;;
62401;SDS011;48440;51.224;22.506;2023-07-29T03:20:56;9.32;;;5.43;;
62401;SDS011;48440;51.224;22.506;2023-07-29T03:23:22;11.30;;;5.43;;
62401;SDS011;48440;51.224;22.506;2023-07-29T03:25:48;6.97;;;5.57;;
62401;SDS011;48440;51.224;22.506;2023-07-29T03:28:16;11.23;;;5.25;;
62401;SDS011;48440;51.224;22.506;2023-07-29T03:30:42;8.13;;;5.63;;
62401;SDS011;48440;51.224;22.506;2023-07-29T03:33:08;13.80;;;6.03;;
62401;SDS011;48440;51.224;22.506;2023-07-29T03:35:34;13.52;;;6.13;;
62401;SDS011;48440;51.224;22.506;2023-07-29T03:38:00;9.75;;;5.50;;
62401;SDS011;48440;51.224;22.506;2023-07-29T03:40:25;13.10;;;6.18;;
62401;SDS011;48440;51.224;22.506;2023-07-29T03:42:51;8.60;;;5.75;;
62401;SDS011;48440;51.224;22.506;2023-07-29T03:45:16;11.90;;;5.95;;
62401;SDS011;48440;51.224;22.506;2023-07-29T03:47:43;12.40;;;6.30;;
62401;SDS011;48440;51.224;22.506;2023-07-29T03:50:08;9.20;;;5.68;;
62401;SDS011;48440;51.224;22.506;2023-07-29T03:52:34;8.27;;;5.93;;
62401;SDS011;48440;51.224;22.506;2023-07-29T03:55:00;6.75;;;5.72;;
62401;SDS011;48440;51.224;22.506;2023-07-29T03:57:26;8.73;;;5.82;;
62401;SDS011;48440;51.224;22.506;2023-07-29T03:59:51;9.02;;;5.93;;
62401;SDS011;48440;51.224;22.506;2023-07-29T04:02:17;9.88;;;5.78;;
62401;SDS011;48440;51.224;22.506;2023-07-29T04:04:43;9.07;;;5.65;;
62401;SDS011;48440;51.224;22.506;2023-07-29T04:07:12;9.80;;;5.50;;
62401;SDS011;48440;51.224;22.506;2023-07-29T04:09:38;9.07;;;6.15;;
62401;SDS011;48440;51.224;22.506;2023-07-29T04:12:05;8.23;;;5.45;;
62401;SDS011;48440;51.224;22.506;2023-07-29T04:14:30;9.43;;;6.45;;
62401;SDS011;48440;51.224;22.506;2023-07-29T04:16:56;12.55;;;6.05;;
62401;SDS011;48440;51.224;22.506;2023-07-29T04:19:21;10.45;;;6.30;;
62401;SDS011;48440;51.224;22.506;2023-07-29T04:21:47;11.88;;;6.22;;
62401;SDS011;48440;51.224;22.506;2023-07-29T04:24:13;11.18;;;6.25;;
62401;SDS011;48440;51.224;22.506;2023-07-29T04:26:38;9.93;;;6.10;;
62401;SDS011;48440;51.224;22.506;2023-07-29T04:29:05;8.32;;;6.28;;
62401;SDS011;48440;51.224;22.506;2023-07-29T04:31:30;13.52;;;6.53;;
62401;SDS011;48440;51.224;22.506;2023-07-29T04:33:56;12.85;;;7.15;;
62401;SDS011;48440;51.224;22.506;2023-07-29T04:36:21;11.73;;;7.80;;
62401;SDS011;48440;51.224;22.506;2023-07-29T04:38:47;9.90;;;7.80;;
62401;SDS011;48440;51.224;22.506;2023-07-29T04:41:13;17.52;;;9.05;;
62401;SDS011;48440;51.224;22.506;2023-07-29T04:43:38;13.77;;;8.60;;
62401;SDS011;48440;51.224;22.506;2023-07-29T04:46:06;13.07;;;8.57;;
62401;SDS011;48440;51.224;22.506;2023-07-29T04:48:33;18.63;;;10.55;;
62401;SDS011;48440;51.224;22.506;2023-07-29T04:50:59;15.75;;;10.63;;
62401;SDS011;48440;51.224;22.506;2023-07-29T04:53:25;23.70;;;12.13;;
62401;SDS011;48440;51.224;22.506;2023-07-29T04:55:50;19.88;;;12.05;;
62401;SDS011;48440;51.224;22.506;2023-07-29T04:58:23;20.80;;;13.18;;
62401;SDS011;48440;51.224;22.506;2023-07-29T05:01:01;20.08;;;13.13;;
62401;SDS011;48440;51.224;22.506;2023-07-29T05:03:43;25.73;;;14.77;;
62401;SDS011;48440;51.224;22.506;2023-07-29T05:06:11;20.65;;;14.00;;
62401;SDS011;48440;51.224;22.506;2023-07-29T05:08:48;25.08;;;14.00;;
62401;SDS011;48440;51.224;22.506;2023-07-29T05:11:13;27.27;;;15.13;;
62401;SDS011;48440;51.224;22.506;2023-07-29T05:13:39;22.88;;;14.50;;
62401;SDS011;48440;51.224;22.506;2023-07-29T05:16:04;27.58;;;16.10;;
62401;SDS011;48440;51.224;22.506;2023-07-29T05:18:30;25.25;;;15.25;;
62401;SDS011;48440;51.224;22.506;2023-07-29T05:20:55;25.55;;;15.40;;
62401;SDS011;48440;51.224;22.506;2023-07-29T05:23:21;29.42;;;15.85;;
62401;SDS011;48440;51.224;22.506;2023-07-29T05:25:46;24.40;;;15.25;;
62401;SDS011;48440;51.224;22.506;2023-07-29T05:28:11;26.52;;;15.43;;
62401;SDS011;48440;51.224;22.506;2023-07-29T05:30:37;25.58;;;15.70;;
62401;SDS011;48440;51.224;22.506;2023-07-29T05:33:04;28.48;;;17.20;;
62401;SDS011;48440;51.224;22.506;2023-07-29T05:35:30;32.70;;;17.45;;
62401;SDS011;48440;51.224;22.506;2023-07-29T05:37:55;28.73;;;18.08;;
62401;SDS011;48440;51.224;22.506;2023-07-29T05:40:21;29.40;;;17.75;;
62401;SDS011;48440;51.224;22.506;2023-07-29T05:42:46;26.80;;;18.10;;
62401;SDS011;48440;51.224;22.506;2023-07-29T05:45:13;26.65;;;17.80;;
62401;SDS011;48440;51.224;22.506;2023-07-29T05:47:38;24.90;;;16.92;;
62401;SDS011;48440;51.224;22.506;2023-07-29T05:50:04;27.58;;;17.23;;
62401;SDS011;48440;51.224;22.506;2023-07-29T05:52:30;25.77;;;17.15;;
62401;SDS011;48440;51.224;22.506;2023-07-29T05:54:56;26.73;;;17.65;;
62401;SDS011;48440;51.224;22.506;2023-07-29T05:57:22;23.77;;;16.52;;
62401;SDS011;48440;51.224;22.506;2023-07-29T05:59:47;26.63;;;18.05;;
62401;SDS011;48440;51.224;22.506;2023-07-29T06:02:12;23.92;;;16.35;;
62401;SDS011;48440;51.224;22.506;2023-07-29T06:04:38;27.33;;;17.17;;
62401;SDS011;48440;51.224;22.506;2023-07-29T06:07:04;24.45;;;16.85;;
62401;SDS011;48440;51.224;22.506;2023-07-29T06:09:30;23.90;;;16.65;;
62401;SDS011;48440;51.224;22.506;2023-07-29T06:11:56;25.23;;;16.70;;
62401;SDS011;48440;51.224;22.506;2023-07-29T06:14:24;24.05;;;16.05;;
62401;SDS011;48440;51.224;22.506;2023-07-29T06:16:49;24.92;;;16.42;;
62401;SDS011;48440;51.224;22.506;2023-07-29T06:19:15;23.73;;;17.13;;
62401;SDS011;48440;51.224;22.506;2023-07-29T06:21:40;27.15;;;17.20;;
62401;SDS011;48440;51.224;22.506;2023-07-29T06:24:06;25.27;;;17.17;;
62401;SDS011;48440;51.224;22.506;2023-07-29T06:26:32;25.52;;;17.20;;
62401;SDS011;48440;51.224;22.506;2023-07-29T06:28:57;23.40;;;16.05;;
62401;SDS011;48440;51.224;22.506;2023-07-29T06:31:23;23.25;;;16.33;;
62401;SDS011;48440;51.224;22.506;2023-07-29T06:33:49;24.20;;;16.60;;
62401;SDS011;48440;51.224;22.506;2023-07-29T06:36:14;24.45;;;16.02;;
62401;SDS011;48440;51.224;22.506;2023-07-29T06:38:40;22.35;;;16.58;;
62401;SDS011;48440;51.224;22.506;2023-07-29T06:41:06;25.25;;;16.92;;
62401;SDS011;48440;51.224;22.506;2023-07-29T06:43:32;26.52;;;18.92;;
62401;SDS011;48440;51.224;22.506;2023-07-29T06:45:57;23.85;;;17.48;;
62401;SDS011;48440;51.224;22.506;2023-07-29T06:48:23;27.65;;;18.27;;
62401;SDS011;48440;51.224;22.506;2023-07-29T06:50:49;29.08;;;19.05;;
62401;SDS011;48440;51.224;22.506;2023-07-29T06:53:17;28.55;;;19.33;;
62401;SDS011;48440;51.224;22.506;2023-07-29T06:55:43;29.92;;;19.85;;
62401;SDS011;48440;51.224;22.506;2023-07-29T06:58:10;32.00;;;19.75;;
62401;SDS011;48440;51.224;22.506;2023-07-29T07:00:36;30.10;;;19.88;;
62401;SDS011;48440;51.224;22.506;2023-07-29T07:03:01;27.65;;;18.75;;
62401;SDS011;48440;51.224;22.506;2023-07-29T07:05:27;26.30;;;19.05;;
62401;SDS011;48440;51.224;22.506;2023-07-29T07:07:52;25.70;;;18.25;;
62401;SDS011;48440;51.224;22.506;2023-07-29T07:10:18;26.48;;;17.67;;
62401;SDS011;48440;51.224;22.506;2023-07-29T07:12:43;25.08;;;17.52;;
62401;SDS011;48440;51.224;22.506;2023-07-29T07:15:09;27.17;;;17.98;;
62401;SDS011;48440;51.224;22.506;2023-07-29T07:17:34;24.52;;;17.42;;
62401;SDS011;48440;51.224;22.506;2023-07-29T07:20:00;28.65;;;18.52;;
62401;SDS011;48440;51.224;22.506;2023-07-29T07:22:26;28.05;;;18.67;;
62401;SDS011;48440;51.224;22.506;2023-07-29T07:24:51;25.00;;;17.25;;
62401;SDS011;48440;51.224;22.506;2023-07-29T07:27:17;29.17;;;19.05;;
62401;SDS011;48440;51.224;22.506;2023-07-29T07:29:43;27.58;;;18.30;;
62401;SDS011;48440;51.224;22.506;2023-07-29T07:32:08;27.00;;;18.58;;
62401;SDS011;48440;51.224;22.506;2023-07-29T07:34:34;26.98;;;18.02;;
62401;SDS011;48440;51.224;22.506;2023-07-29T07:36:59;24.15;;;17.92;;
62401;SDS011;48440;51.224;22.506;2023-07-29T07:39:26;22.88;;;17.52;;
62401;SDS011;48440;51.224;22.506;2023-07-29T07:41:51;22.10;;;16.85;;
62401;SDS011;48440;51.224;22.506;2023-07-29T07:44:17;22.10;;;16.20;;
62401;SDS011;48440;51.224;22.506;2023-07-29T07:46:44;22.60;;;15.55;;
62401;SDS011;48440;51.224;22.506;2023-07-29T07:49:10;21.80;;;14.55;;
62401;SDS011;48440;51.224;22.506;2023-07-29T07:51:35;18.45;;;13.60;;
62401;SDS011;48440;51.224;22.506;2023-07-29T07:54:01;16.55;;;12.73;;
62401;SDS011;48440;51.224;22.506;2023-07-29T07:56:27;17.30;;;12.18;;
62401;SDS011;48440;51.224;22.506;2023-07-29T07:58:52;19.50;;;12.38;;
62401;SDS011;48440;51.224;22.506;2023-07-29T08:01:18;17.13;;;13.27;;
62401;SDS011;48440;51.224;22.506;2023-07-29T08:03:44;17.60;;;12.43;;
62401;SDS011;48440;51.224;22.506;2023-07-29T08:06:10;15.68;;;12.18;;
62401;SDS011;48440;51.224;22.506;2023-07-29T08:08:35;15.43;;;12.02;;
62401;SDS011;48440;51.224;22.506;2023-07-29T08:11:01;14.45;;;11.13;;
62401;SDS011;48440;51.224;22.506;2023-07-29T08:13:26;14.13;;;10.32;;
62401;SDS011;48440;51.224;22.506;2023-07-29T08:15:52;14.07;;;10.48;;
62401;SDS011;48440;51.224;22.506;2023-07-29T08:18:18;13.77;;;10.27;;
62401;SDS011;48440;51.224;22.506;2023-07-29T08:20:54;16.52;;;10.90;;
62401;SDS011;48440;51.224;22.506;2023-07-29T08:23:23;13.43;;;9.48;;
62401;SDS011;48440;51.224;22.506;2023-07-29T08:25:59;14.07;;;9.60;;
62401;SDS011;48440;51.224;22.506;2023-07-29T08:28:27;13.05;;;9.30;;
62401;SDS011;48440;51.224;22.506;2023-07-29T08:31:10;13.88;;;9.18;;
62401;SDS011;48440;51.224;22.506;2023-07-29T08:33:36;14.63;;;9.88;;
62401;SDS011;48440;51.224;22.506;2023-07-29T08:36:02;13.43;;;9.68;;
62401;SDS011;48440;51.224;22.506;2023-07-29T08:38:28;10.38;;;8.77;;
62401;SDS011;48440;51.224;22.506;2023-07-29T08:41:13;12.52;;;8.70;;
62401;SDS011;48440;51.224;22.506;2023-07-29T08:46:29;9.40;;;7.60;;
62401;SDS011;48440;51.224;22.506;2023-07-29T08:48:55;10.13;;;7.38;;
62401;SDS011;48440;51.224;22.506;2023-07-29T08:51:21;8.32;;;6.90;;
62401;SDS011;48440;51.224;22.506;2023-07-29T08:53:49;9.32;;;7.20;;
62401;SDS011;48440;51.224;22.506;2023-07-29T08:56:15;10.23;;;7.20;;
62401;SDS011;48440;51.224;22.506;2023-07-29T08:58:41;9.38;;;7.10;;
62401;SDS011;48440;51.224;22.506;2023-07-29T09:01:08;8.85;;;5.97;;
62401;SDS011;48440;51.224;22.506;2023-07-29T09:03:33;7.55;;;6.20;;
62401;SDS011;48440;51.224;22.506;2023-07-29T09:05:59;7.05;;;5.70;;
62401;SDS011;48440;51.224;22.506;2023-07-29T09:08:27;9.32;;;6.32;;
62401;SDS011;48440;51.224;22.506;2023-07-29T09:10:53;7.75;;;6.40;;
62401;SDS011;48440;51.224;22.506;2023-07-29T09:13:20;7.45;;;6.18;;
62401;SDS011;48440;51.224;22.506;2023-07-29T09:15:46;6.47;;;5.70;;
62401;SDS011;48440;51.224;22.506;2023-07-29T09:18:14;7.88;;;6.25;;
62401;SDS011;48440;51.224;22.506;2023-07-29T09:20:41;7.13;;;5.53;;
62401;SDS011;48440;51.224;22.506;2023-07-29T09:23:07;8.93;;;5.65;;
62401;SDS011;48440;51.224;22.506;2023-07-29T09:25:35;8.90;;;6.07;;
62401;SDS011;48440;51.224;22.506;2023-07-29T09:28:01;7.03;;;5.72;;
62401;SDS011;48440;51.224;22.506;2023-07-29T09:30:37;8.00;;;5.55;;
62401;SDS011;48440;51.224;22.506;2023-07-29T09:33:03;7.65;;;6.13;;
62401;SDS011;48440;51.224;22.506;2023-07-29T09:35:30;7.70;;;5.20;;
62401;SDS011;48440;51.224;22.506;2023-07-29T09:37:58;7.18;;;5.68;;
62401;SDS011;48440;51.224;22.506;2023-07-29T09:40:23;7.32;;;5.22;;
62401;SDS011;48440;51.224;22.506;2023-07-29T09:42:50;6.07;;;5.10;;
62401;SDS011;48440;51.224;22.506;2023-07-29T09:45:24;7.97;;;5.97;;
62401;SDS011;48440;51.224;22.506;2023-07-29T09:47:51;6.65;;;5.47;;
62401;SDS011;48440;51.224;22.506;2023-07-29T09:50:17;8.30;;;6.00;;
62401;SDS011;48440;51.224;22.506;2023-07-29T09:52:44;7.63;;;5.78;;
62401;SDS011;48440;51.224;22.506;2023-07-29T09:55:13;8.55;;;5.60;;
62401;SDS011;48440;51.224;22.506;2023-07-29T09:57:39;5.88;;;5.20;;
62401;SDS011;48440;51.224;22.506;2023-07-29T10:00:06;6.75;;;5.40;;
62401;SDS011;48440;51.224;22.506;2023-07-29T10:02:36;5.85;;;5.05;;
62401;SDS011;48440;51.224;22.506;2023-07-29T10:05:07;6.25;;;4.65;;
62401;SDS011;48440;51.224;22.506;2023-07-29T10:07:34;6.30;;;5.00;;
62401;SDS011;48440;51.224;22.506;2023-07-29T10:10:02;5.97;;;5.10;;
62401;SDS011;48440;51.224;22.506;2023-07-29T10:12:33;5.28;;;4.68;;
62401;SDS011;48440;51.224;22.506;2023-07-29T10:15:02;6.00;;;5.10;;
62401;SDS011;48440;51.224;22.506;2023-07-29T10:17:37;6.25;;;5.15;;
62401;SDS011;48440;51.224;22.506;2023-07-29T10:20:05;6.18;;;4.90;;
62401;SDS011;48440;51.224;22.506;2023-07-29T10:22:33;6.78;;;5.10;;
62401;SDS011;48440;51.224;22.506;2023-07-29T10:25:07;6.43;;;5.13;;
62401;SDS011;48440;51.224;22.506;2023-07-29T10:27:43;8.13;;;5.17;;
62401;SDS011;48440;51.224;22.506;2023-07-29T10:30:13;5.93;;;4.93;;
62401;SDS011;48440;51.224;22.506;2023-07-29T10:32:41;6.70;;;4.95;;
62401;SDS011;48440;51.224;22.506;2023-07-29T10:35:11;7.30;;;4.75;;
62401;SDS011;48440;51.224;22.506;2023-07-29T10:37:38;7.10;;;4.93;;
62401;SDS011;48440;51.224;22.506;2023-07-29T10:40:08;7.00;;;4.80;;
62401;SDS011;48440;51.224;22.506;2023-07-29T10:42:35;5.88;;;4.82;;
62401;SDS011;48440;51.224;22.506;2023-07-29T10:45:18;5.47;;;4.65;;
62401;SDS011;48440;51.224;22.506;2023-07-29T10:47:44;7.60;;;4.72;;
62401;SDS011;48440;51.224;22.506;2023-07-29T10:50:17;5.55;;;4.43;;
62401;SDS011;48440;51.224;22.506;2023-07-29T10:52:46;5.47;;;4.25;;
62401;SDS011;48440;51.224;22.506;2023-07-29T10:55:24;6.40;;;4.20;;
62401;SDS011;48440;51.224;22.506;2023-07-29T10:57:51;5.65;;;4.35;;
62401;SDS011;48440;51.224;22.506;2023-07-29T11:00:18;5.97;;;4.80;;
62401;SDS011;48440;51.224;22.506;2023-07-29T11:02:56;6.47;;;4.63;;
62401;SDS011;48440;51.224;22.506;2023-07-29T11:05:26;5.93;;;4.18;;
62401;SDS011;48440;51.224;22.506;2023-07-29T11:08:15;4.00;;;3.60;;
62401;SDS011;48440;51.224;22.506;2023-07-29T11:11:04;6.10;;;3.50;;
62401;SDS011;48440;51.224;22.506;2023-07-29T11:13:31;4.70;;;3.78;;
62401;SDS011;48440;51.224;22.506;2023-07-29T11:15:57;4.20;;;3.70;;
62401;SDS011;48440;51.224;22.506;2023-07-29T11:18:28;4.45;;;3.85;;
62401;SDS011;48440;51.224;22.506;2023-07-29T11:20:58;5.05;;;4.05;;
62401;SDS011;48440;51.224;22.506;2023-07-29T11:23:34;5.78;;;3.50;;
62401;SDS011;48440;51.224;22.506;2023-07-29T11:26:01;3.60;;;3.30;;
62401;SDS011;48440;51.224;22.506;2023-07-29T11:28:28;4.32;;;3.15;;
62401;SDS011;48440;51.224;22.506;2023-07-29T11:30:54;4.43;;;2.90;;
62401;SDS011;48440;51.224;22.506;2023-07-29T11:33:23;4.88;;;2.80;;
62401;SDS011;48440;51.224;22.506;2023-07-29T11:35:50;3.88;;;2.50;;
62401;SDS011;48440;51.224;22.506;2023-07-29T11:38:16;3.15;;;2.80;;
62401;SDS011;48440;51.224;22.506;2023-07-29T11:40:43;3.60;;;2.88;;
62401;SDS011;48440;51.224;22.506;2023-07-29T11:43:18;3.58;;;2.38;;
62401;SDS011;48440;51.224;22.506;2023-07-29T11:45:44;4.40;;;2.88;;
62401;SDS011;48440;51.224;22.506;2023-07-29T11:48:10;3.03;;;2.67;;
62401;SDS011;48440;51.224;22.506;2023-07-29T11:50:35;3.60;;;2.58;;
62401;SDS011;48440;51.224;22.506;2023-07-29T11:53:01;4.82;;;2.50;;
62401;SDS011;48440;51.224;22.506;2023-07-29T11:55:27;2.72;;;2.30;;
62401;SDS011;48440;51.224;22.506;2023-07-29T11:57:52;3.90;;;2.75;;
62401;SDS011;48440;51.224;22.506;2023-07-29T12:00:18;3.63;;;2.70;;
62401;SDS011;48440;51.224;22.506;2023-07-29T12:02:44;3.80;;;2.45;;
62401;SDS011;48440;51.224;22.506;2023-07-29T12:05:11;4.55;;;3.47;;
62401;SDS011;48440;51.224;22.506;2023-07-29T12:07:38;3.67;;;2.80;;
62401;SDS011;48440;51.224;22.506;2023-07-29T12:10:04;4.00;;;2.90;;
62401;SDS011;48440;51.224;22.506;2023-07-29T12:12:31;2.70;;;2.40;;
62401;SDS011;48440;51.224;22.506;2023-07-29T12:14:56;2.70;;;2.40;;
62401;SDS011;48440;51.224;22.506;2023-07-29T12:17:22;3.00;;;2.35;;
62401;SDS011;48440;51.224;22.506;2023-07-29T12:19:48;5.30;;;2.45;;
62401;SDS011;48440;51.224;22.506;2023-07-29T12:22:17;4.22;;;2.30;;
62401;SDS011;48440;51.224;22.506;2023-07-29T12:24:44;2.67;;;2.40;;
62401;SDS011;48440;51.224;22.506;2023-07-29T12:27:10;4.82;;;2.63;;
62401;SDS011;48440;51.224;22.506;2023-07-29T12:29:41;2.47;;;2.13;;
62401;SDS011;48440;51.224;22.506;2023-07-29T12:32:07;2.88;;;2.40;;
62401;SDS011;48440;51.224;22.506;2023-07-29T12:34:33;2.70;;;2.20;;
62401;SDS011;48440;51.224;22.506;2023-07-29T12:37:02;2.70;;;2.00;;
62401;SDS011;48440;51.224;22.506;2023-07-29T12:39:29;4.13;;;2.33;;
62401;SDS011;48440;51.224;22.506;2023-07-29T12:41:57;3.20;;;2.40;;
62401;SDS011;48440;51.224;22.506;2023-07-29T12:44:24;3.15;;;2.60;;
62401;SDS011;48440;51.224;22.506;2023-07-29T12:46:55;4.05;;;2.47;;
62401;SDS011;48440;51.224;22.506;2023-07-29T12:49:20;2.97;;;2.38;;
62401;SDS011;48440;51.224;22.506;2023-07-29T12:51:47;2.92;;;2.40;;
62401;SDS011;48440;51.224;22.506;2023-07-29T12:54:13;4.20;;;2.40;;
62401;SDS011;48440;51.224;22.506;2023-07-29T12:56:38;3.40;;;2.45;;
62401;SDS011;48440;51.224;22.506;2023-07-29T12:59:04;3.55;;;2.58;;
62401;SDS011;48440;51.224;22.506;2023-07-29T13:01:30;2.92;;;2.40;;
62401;SDS011;48440;51.224;22.506;2023-07-29T13:03:55;3.50;;;2.38;;
62401;SDS011;48440;51.224;22.506;2023-07-29T13:06:21;3.45;;;2.60;;
62401;SDS011;48440;51.224;22.506;2023-07-29T13:08:47;2.88;;;2.28;;
62401;SDS011;48440;51.224;22.506;2023-07-29T13:11:14;3.10;;;2.50;;
62401;SDS011;48440;51.224;22.506;2023-07-29T13:13:39;3.38;;;2.70;;
62401;SDS011;48440;51.224;22.506;2023-07-29T13:16:05;2.72;;;2.40;;
62401;SDS011;48440;51.224;22.506;2023-07-29T13:18:31;3.40;;;3.05;;
62401;SDS011;48440;51.224;22.506;2023-07-29T13:20:57;3.22;;;2.83;;
62401;SDS011;48440;51.224;22.506;2023-07-29T13:23:22;4.15;;;3.20;;
62401;SDS011;48440;51.224;22.506;2023-07-29T13:25:48;3.45;;;2.85;;
62401;SDS011;48440;51.224;22.506;2023-07-29T13:28:13;4.18;;;3.00;;
62401;SDS011;48440;51.224;22.506;2023-07-29T13:30:39;3.25;;;2.80;;
62401;SDS011;48440;51.224;22.506;2023-07-29T13:33:08;5.72;;;3.75;;
62401;SDS011;48440;51.224;22.506;2023-07-29T13:35:34;3.88;;;3.28;;
62401;SDS011;48440;51.224;22.506;2023-07-29T13:38:00;3.83;;;2.85;;
62401;SDS011;48440;51.224;22.506;2023-07-29T13:40:26;3.40;;;3.10;;
62401;SDS011;48440;51.224;22.506;2023-07-29T13:42:51;3.55;;;3.17;;
62401;SDS011;48440;51.224;22.506;2023-07-29T13:45:17;4.43;;;3.33;;
62401;SDS011;48440;51.224;22.506;2023-07-29T13:47:43;4.20;;;3.60;;
62401;SDS011;48440;51.224;22.506;2023-07-29T13:50:09;4.40;;;3.80;;
62401;SDS011;48440;51.224;22.506;2023-07-29T13:52:35;6.65;;;3.97;;
62401;SDS011;48440;51.224;22.506;2023-07-29T13:55:02;4.70;;;3.90;;
62401;SDS011;48440;51.224;22.506;2023-07-29T13:57:28;3.80;;;3.40;;
62401;SDS011;48440;51.224;22.506;2023-07-29T13:59:53;4.13;;;3.20;;
62401;SDS011;48440;51.224;22.506;2023-07-29T14:02:19;5.53;;;3.67;;
62401;SDS011;48440;51.224;22.506;2023-07-29T14:04:44;4.97;;;3.25;;
62401;SDS011;48440;51.224;22.506;2023-07-29T14:07:10;3.85;;;3.38;;
62401;SDS011;48440;51.224;22.506;2023-07-29T14:09:35;3.85;;;3.05;;
62401;SDS011;48440;51.224;22.506;2023-07-29T14:12:00;4.45;;;3.22;;
62401;SDS011;48440;51.224;22.506;2023-07-29T14:14:26;3.97;;;3.45;;
62401;SDS011;48440;51.224;22.506;2023-07-29T14:16:51;4.00;;;3.30;;
62401;SDS011;48440;51.224;22.506;2023-07-29T14:19:17;3.88;;;3.30;;
62401;SDS011;48440;51.224;22.506;2023-07-29T14:21:43;4.95;;;3.28;;
62401;SDS011;48440;51.224;22.506;2023-07-29T14:24:08;4.55;;;3.33;;
62401;SDS011;48440;51.224;22.506;2023-07-29T14:26:34;6.82;;;3.17;;
62401;SDS011;48440;51.224;22.506;2023-07-29T14:28:59;3.72;;;2.97;;
62401;SDS011;48440;51.224;22.506;2023-07-29T14:31:24;3.95;;;3.30;;
62401;SDS011;48440;51.224;22.506;2023-07-29T14:33:50;4.63;;;3.30;;